Time;durP1;ratioP1;P1;durP2;ratioP2;P2;SDS_P1;SDS_P2;PMS_P1;PMS_P2;Temp;Humidity;BMP_temperature;BMP_pressure;BME280_temperature;BME280_humidity;BME280_pressure;Samples;Min_cycle;Max_cycle;Signal;HPM_P1;HPM_P2
2023/04/20 00:01:39;;;;;;;10.52;7.43;;;;;;;;;;5018605;28;20091;-69
2023/04/20 00:04:05;;;;;;;11.63;7.22;;;;;;;;;;5020757;28;20049;-67
2023/04/20 00:06:32;;;;;;;13.63;7.53;;;;;;;;;;5019838;28;20057;-67
2023/04/20 00:08:58;;;;;;;13.70;7.93;;;;;;;;;;5018776;28;20042;-66
2023/04/20 00:11:24;;;;;;;10.50;7.53;;;;;;;;;;5020130;28;21009;-68
2023/04/20 00:13:49;;;;;;;10.10;7.85;;;;;;;;;;5020217;28;20046;-66
2023/04/20 00:16:15;;;;;;;11.10;7.15;;;;;;;;;;5020462;28;20046;-70
2023/04/20 00:18:40;;;;;;;13.15;7.95;;;;;;;;;;5022067;28;20402;-67
2023/04/20 00:21:06;;;;;;;10.85;7.15;;;;;;;;;;5023372;28;20076;-69
2023/04/20 00:23:31;;;;;;;11.18;7.85;;;;;;;;;;5022608;28;20508;-72
2023/04/20 00:25:57;;;;;;;10.02;6.60;;;;;;;;;;5022333;28;20042;-73
2023/04/20 00:28:22;;;;;;;9.50;6.53;;;;;;;;;;5024200;28;20037;-70
2023/04/20 00:30:48;;;;;;;11.90;7.63;;;;;;;;;;5023147;28;20070;-73
2023/04/20 00:33:13;;;;;;;12.50;8.43;;;;;;;;;;5021382;28;20084;-69
2023/04/20 00:35:40;;;;;;;15.35;9.20;;;;;;;;;;5012028;28;20041;-66
2023/04/20 00:38:06;;;;;;;13.25;8.32;;;;;;;;;;5022036;28;20047;-67
2023/04/20 00:40:32;;;;;;;16.70;8.75;;;;;;;;;;4993052;28;20140;-68
2023/04/20 00:43:08;;;;;;;15.70;9.73;;;;;;;;;;5016900;28;20075;-70
2023/04/20 00:45:34;;;;;;;17.77;10.35;;;;;;;;;;5040848;28;20096;-71
2023/04/20 00:47:59;;;;;;;17.75;11.02;;;;;;;;;;5042917;28;20041;-74
2023/04/20 00:50:26;;;;;;;18.38;11.45;;;;;;;;;;5041808;28;20052;-71
2023/04/20 00:52:51;;;;;;;16.52;10.35;;;;;;;;;;5040565;28;20268;-66
2023/04/20 00:55:19;;;;;;;17.77;11.18;;;;;;;;;;5042109;28;20044;-69
2023/04/20 00:57:44;;;;;;;17.65;10.65;;;;;;;;;;5042457;28;20059;-66
2023/04/20 01:00:10;;;;;;;16.13;9.95;;;;;;;;;;5042842;28;20044;-70
2023/04/20 01:02:35;;;;;;;14.88;9.25;;;;;;;;;;5040037;28;20053;-69
2023/04/20 01:05:01;;;;;;;19.67;11.82;;;;;;;;;;5042213;28;20037;-73
2023/04/20 01:07:28;;;;;;;27.15;13.25;;;;;;;;;;5040258;28;20045;-68
2023/04/20 01:09:55;;;;;;;14.65;9.05;;;;;;;;;;5040642;28;20064;-69
2023/04/20 01:12:20;;;;;;;15.05;9.65;;;;;;;;;;5039666;28;20560;-67
2023/04/20 01:14:45;;;;;;;16.05;9.38;;;;;;;;;;5038589;28;20083;-69
2023/04/20 01:17:12;;;;;;;14.57;9.60;;;;;;;;;;5039966;28;20052;-72
2023/04/20 01:19:37;;;;;;;14.85;9.25;;;;;;;;;;5040626;28;20045;-67
2023/04/20 01:22:03;;;;;;;19.48;11.52;;;;;;;;;;5040265;28;20075;-72
2023/04/20 01:24:28;;;;;;;21.40;11.88;;;;;;;;;;5040573;28;20098;-66
2023/04/20 01:26:54;;;;;;;21.83;11.60;;;;;;;;;;5041636;28;20041;-70
2023/04/20 01:29:19;;;;;;;22.80;13.68;;;;;;;;;;5037451;28;20043;-70
2023/04/20 01:31:45;;;;;;;23.77;13.80;;;;;;;;;;5041911;28;20983;-68
2023/04/20 01:34:10;;;;;;;28.55;14.40;;;;;;;;;;5041391;28;20496;-67
2023/04/20 01:36:37;;;;;;;25.25;13.98;;;;;;;;;;5039480;28;20064;-67
2023/04/20 01:39:02;;;;;;;27.75;13.75;;;;;;;;;;5042194;28;20132;-71
2023/04/20 01:41:28;;;;;;;25.95;12.57;;;;;;;;;;5041611;28;20379;-67
2023/04/20 01:43:55;;;;;;;21.13;13.15;;;;;;;;;;5040321;28;20405;-67
2023/04/20 01:46:20;;;;;;;32.13;15.07;;;;;;;;;;5040623;28;20135;-68
2023/04/20 01:48:46;;;;;;;27.45;14.05;;;;;;;;;;5040945;28;20044;-68
2023/04/20 01:51:13;;;;;;;24.50;13.25;;;;;;;;;;5040185;28;20037;-66
2023/04/20 01:53:39;;;;;;;24.67;13.30;;;;;;;;;;5041181;28;20071;-66
2023/04/20 01:56:06;;;;;;;21.95;12.85;;;;;;;;;;5041124;28;20049;-68
2023/04/20 01:58:31;;;;;;;26.25;11.85;;;;;;;;;;5038667;28;20044;-67
2023/04/20 02:00:57;;;;;;;24.20;12.75;;;;;;;;;;5039697;28;20052;-67
2023/04/20 02:03:22;;;;;;;25.00;15.18;;;;;;;;;;5039734;28;20048;-67
2023/04/20 02:05:47;;;;;;;21.55;12.65;;;;;;;;;;5041099;28;20051;-67
2023/04/20 02:08:13;;;;;;;23.02;11.65;;;;;;;;;;5040812;28;20044;-70
2023/04/20 02:10:38;;;;;;;22.25;13.80;;;;;;;;;;5039257;28;20056;-67
2023/04/20 02:13:04;;;;;;;20.02;12.18;;;;;;;;;;5041028;28;20056;-68
2023/04/20 02:15:30;;;;;;;20.92;12.30;;;;;;;;;;5039314;28;21355;-66
2023/04/20 02:17:56;;;;;;;24.63;13.23;;;;;;;;;;5040995;28;20090;-68
2023/04/20 02:20:21;;;;;;;22.33;13.63;;;;;;;;;;5039594;28;20048;-71
2023/04/20 02:22:47;;;;;;;23.75;13.68;;;;;;;;;;5040099;28;20091;-67
2023/04/20 02:25:13;;;;;;;20.75;13.35;;;;;;;;;;5039089;28;20040;-70
2023/04/20 02:27:39;;;;;;;23.83;14.18;;;;;;;;;;5039320;28;20529;-67
2023/04/20 02:30:05;;;;;;;17.55;11.25;;;;;;;;;;5038561;28;20048;-70
2023/04/20 02:32:31;;;;;;;19.95;12.48;;;;;;;;;;5038381;28;20158;-68
2023/04/20 02:34:57;;;;;;;22.05;12.50;;;;;;;;;;5040432;28;20044;-68
2023/04/20 02:37:24;;;;;;;20.65;11.55;;;;;;;;;;5039242;28;20032;-66
2023/04/20 02:39:50;;;;;;;22.15;13.27;;;;;;;;;;5038940;28;20067;-69
2023/04/20 02:42:16;;;;;;;20.38;10.70;;;;;;;;;;5039300;28;20528;-67
2023/04/20 02:44:42;;;;;;;16.45;10.52;;;;;;;;;;5038441;28;20094;-69
2023/04/20 02:47:08;;;;;;;16.50;11.05;;;;;;;;;;5039023;28;20041;-68
2023/04/20 02:49:34;;;;;;;14.45;9.07;;;;;;;;;;5022376;28;20047;-69
2023/04/20 02:51:59;;;;;;;17.85;10.98;;;;;;;;;;5038097;28;20052;-68
2023/04/20 02:54:25;;;;;;;18.13;9.80;;;;;;;;;;5022366;28;20243;-70
2023/04/20 02:56:51;;;;;;;20.35;11.10;;;;;;;;;;5039809;28;20057;-66
2023/04/20 02:59:16;;;;;;;16.02;9.52;;;;;;;;;;5038873;28;20069;-69
2023/04/20 03:01:51;;;;;;;19.13;11.05;;;;;;;;;;5040141;28;20047;-67
2023/04/20 03:04:20;;;;;;;18.17;10.45;;;;;;;;;;5038105;28;20045;-68
2023/04/20 03:06:53;;;;;;;16.80;10.25;;;;;;;;;;5038289;28;20110;-68
2023/04/20 03:09:24;;;;;;;19.80;10.97;;;;;;;;;;5039165;28;20044;-67
2023/04/20 03:12:08;;;;;;;18.95;9.65;;;;;;;;;;5039687;28;20636;-66
2023/04/20 03:14:52;;;;;;;22.00;11.68;;;;;;;;;;5037716;28;20596;-69
2023/04/20 03:17:23;;;;;;;18.88;11.07;;;;;;;;;;5038019;28;20106;-69
2023/04/20 03:19:49;;;;;;;20.35;11.98;;;;;;;;;;5038976;28;20048;-69
2023/04/20 03:22:18;;;;;;;21.60;12.80;;;;;;;;;;5039716;28;20072;-69
2023/04/20 03:24:46;;;;;;;21.05;12.02;;;;;;;;;;5038466;28;20083;-67
2023/04/20 03:27:20;;;;;;;18.85;11.05;;;;;;;;;;5038739;28;20091;-66
2023/04/20 03:30:00;;;;;;;19.02;9.98;;;;;;;;;;5036517;28;20076;-66
2023/04/20 03:32:26;;;;;;;17.52;11.20;;;;;;;;;;5038270;28;20397;-66
2023/04/20 03:34:52;;;;;;;24.63;10.80;;;;;;;;;;5037877;28;21180;-66
2023/04/20 03:37:17;;;;;;;16.85;10.43;;;;;;;;;;5039068;28;20134;-69
2023/04/20 03:39:46;;;;;;;16.73;10.55;;;;;;;;;;5038354;28;20171;-69
2023/04/20 03:42:11;;;;;;;17.45;10.00;;;;;;;;;;5038384;28;20116;-68
2023/04/20 03:44:36;;;;;;;22.52;10.38;;;;;;;;;;5035840;28;20041;-67
2023/04/20 03:47:04;;;;;;;19.42;11.70;;;;;;;;;;5037214;28;20743;-67
2023/04/20 03:49:30;;;;;;;22.52;11.65;;;;;;;;;;5038550;28;20486;-69
2023/04/20 03:51:56;;;;;;;18.25;11.25;;;;;;;;;;5039422;28;20052;-70
2023/04/20 03:54:21;;;;;;;13.27;8.48;;;;;;;;;;5042357;28;20084;-68
2023/04/20 03:56:48;;;;;;;11.60;8.20;;;;;;;;;;5041325;28;20509;-66
2023/04/20 03:59:15;;;;;;;14.95;8.63;;;;;;;;;;5040836;28;20548;-70
2023/04/20 04:01:43;;;;;;;14.45;8.13;;;;;;;;;;5041700;28;20045;-67
2023/04/20 04:04:09;;;;;;;9.55;6.45;;;;;;;;;;5041781;28;20105;-67
2023/04/20 04:06:35;;;;;;;10.98;7.40;;;;;;;;;;5042623;28;20049;-71
2023/04/20 04:09:00;;;;;;;12.10;7.28;;;;;;;;;;5040634;28;20041;-70
2023/04/20 04:11:28;;;;;;;15.68;8.18;;;;;;;;;;5041083;28;20572;-68
2023/04/20 04:13:56;;;;;;;11.30;7.68;;;;;;;;;;5037003;28;20040;-68
2023/04/20 04:16:21;;;;;;;13.35;8.88;;;;;;;;;;5033525;28;20041;-70
2023/04/20 04:18:48;;;;;;;8.02;6.18;;;;;;;;;;5036138;28;20144;-68
2023/04/20 04:21:13;;;;;;;15.05;10.20;;;;;;;;;;5055985;28;20052;-68
2023/04/20 04:23:43;;;;;;;11.73;7.15;;;;;;;;;;5040599;28;20045;-68
2023/04/20 04:26:14;;;;;;;13.48;8.73;;;;;;;;;;5041624;28;20052;-70
2023/04/20 04:28:44;;;;;;;14.98;8.55;;;;;;;;;;5041845;28;20102;-68
2023/04/20 04:31:16;;;;;;;12.82;8.82;;;;;;;;;;5041252;28;20040;-68
2023/04/20 04:33:42;;;;;;;12.95;7.68;;;;;;;;;;5034193;28;20102;-70
2023/04/20 04:36:09;;;;;;;13.60;8.05;;;;;;;;;;5013787;28;20056;-72
2023/04/20 04:38:34;;;;;;;12.85;8.20;;;;;;;;;;4998305;28;20041;-68
2023/04/20 04:41:00;;;;;;;9.77;6.30;;;;;;;;;;5037701;28;20041;-70
2023/04/20 04:43:28;;;;;;;12.20;8.07;;;;;;;;;;5022467;28;20057;-68
2023/04/20 04:46:10;;;;;;;11.50;6.95;;;;;;;;;;5022980;28;20084;-67
2023/04/20 04:48:36;;;;;;;11.50;6.28;;;;;;;;;;5038261;28;20037;-66
2023/04/20 04:51:03;;;;;;;14.45;8.50;;;;;;;;;;5021056;28;20061;-66
2023/04/20 04:53:29;;;;;;;13.88;8.60;;;;;;;;;;5020455;28;20053;-66
2023/04/20 04:55:55;;;;;;;15.07;7.75;;;;;;;;;;5022617;28;20057;-70
2023/04/20 04:58:20;;;;;;;9.60;6.25;;;;;;;;;;5022728;28;20041;-67
2023/04/20 05:00:45;;;;;;;12.18;8.15;;;;;;;;;;5021231;28;20581;-67
2023/04/20 05:03:11;;;;;;;8.93;5.60;;;;;;;;;;5020238;28;20502;-72
2023/04/20 05:05:37;;;;;;;15.30;9.77;;;;;;;;;;5021300;28;20555;-66
2023/04/20 05:08:02;;;;;;;16.27;10.25;;;;;;;;;;5022348;28;20049;-68
2023/04/20 05:10:28;;;;;;;13.68;8.80;;;;;;;;;;5020273;28;20053;-66
2023/04/20 05:12:54;;;;;;;14.32;8.93;;;;;;;;;;5023341;28;20053;-71
2023/04/20 05:15:19;;;;;;;11.15;7.38;;;;;;;;;;5018552;28;20135;-71
2023/04/20 05:17:45;;;;;;;13.30;8.15;;;;;;;;;;5037807;28;20041;-69
2023/04/20 05:20:11;;;;;;;15.60;9.13;;;;;;;;;;5021192;28;20095;-67
2023/04/20 05:22:37;;;;;;;14.85;8.55;;;;;;;;;;5008605;28;20549;-68
2023/04/20 05:25:03;;;;;;;7.30;5.47;;;;;;;;;;5020650;28;20585;-73
2023/04/20 05:27:29;;;;;;;10.90;6.68;;;;;;;;;;5019782;28;20136;-68
2023/04/20 05:29:55;;;;;;;15.90;9.82;;;;;;;;;;5020248;28;20417;-71
2023/04/20 05:32:20;;;;;;;7.95;6.03;;;;;;;;;;5020439;28;20036;-69
2023/04/20 05:34:45;;;;;;;12.68;7.97;;;;;;;;;;5020654;28;20129;-67
2023/04/20 05:37:12;;;;;;;12.77;7.75;;;;;;;;;;5020568;28;20588;-68
2023/04/20 05:39:37;;;;;;;10.73;6.25;;;;;;;;;;5022122;28;20095;-68
2023/04/20 05:42:03;;;;;;;19.92;8.65;;;;;;;;;;5022241;28;20481;-68
2023/04/20 05:44:28;;;;;;;14.32;9.77;;;;;;;;;;5021871;28;20468;-71
2023/04/20 05:46:53;;;;;;;15.65;9.00;;;;;;;;;;5019994;28;20045;-67
2023/04/20 05:49:19;;;;;;;14.80;7.93;;;;;;;;;;5020835;28;20500;-68
2023/04/20 05:51:45;;;;;;;12.55;8.52;;;;;;;;;;5021803;28;20049;-74
2023/04/20 05:54:11;;;;;;;9.75;6.70;;;;;;;;;;5020964;28;20052;-73
2023/04/20 05:56:36;;;;;;;8.52;5.18;;;;;;;;;;5019509;28;20157;-71
2023/04/20 05:59:03;;;;;;;7.30;5.10;;;;;;;;;;5018880;28;20140;-68
2023/04/20 06:01:28;;;;;;;8.73;6.03;;;;;;;;;;5019429;28;20060;-73
2023/04/20 06:03:53;;;;;;;6.88;5.15;;;;;;;;;;5019770;28;20426;-68
2023/04/20 06:06:19;;;;;;;4.70;4.18;;;;;;;;;;5019941;28;20072;-70
2023/04/20 06:08:44;;;;;;;7.90;6.07;;;;;;;;;;5019219;28;20057;-71
2023/04/20 06:11:10;;;;;;;4.32;3.05;;;;;;;;;;5020750;28;20041;-67
2023/04/20 06:13:35;;;;;;;4.72;3.55;;;;;;;;;;5021149;28;20517;-69
2023/04/20 06:16:00;;;;;;;8.10;5.80;;;;;;;;;;5021153;28;20157;-72
2023/04/20 06:18:27;;;;;;;12.13;5.43;;;;;;;;;;5021823;28;20148;-69
2023/04/20 06:20:53;;;;;;;8.75;6.47;;;;;;;;;;5019647;28;20066;-69
2023/04/20 06:23:18;;;;;;;10.20;7.75;;;;;;;;;;5020881;28;20041;-73
2023/04/20 06:25:44;;;;;;;11.70;8.90;;;;;;;;;;5019671;28;20049;-69
2023/04/20 06:28:10;;;;;;;12.32;8.75;;;;;;;;;;5021108;28;20449;-69
2023/04/20 06:30:35;;;;;;;10.10;6.82;;;;;;;;;;5012951;28;20080;-72
2023/04/20 06:33:02;;;;;;;10.38;7.57;;;;;;;;;;5019214;28;20072;-67
2023/04/20 06:35:27;;;;;;;9.50;7.10;;;;;;;;;;5020369;28;20057;-69
2023/04/20 06:37:56;;;;;;;9.95;7.43;;;;;;;;;;5020516;28;20060;-70
2023/04/20 06:40:22;;;;;;;10.77;6.60;;;;;;;;;;5020736;28;20041;-73
2023/04/20 06:42:47;;;;;;;8.43;5.25;;;;;;;;;;5019207;28;20139;-67
2023/04/20 06:45:13;;;;;;;10.35;7.75;;;;;;;;;;5020369;28;20068;-69
2023/04/20 06:47:38;;;;;;;13.30;8.80;;;;;;;;;;5019227;28;20045;-72
2023/04/20 06:50:08;;;;;;;14.63;9.80;;;;;;;;;;5020833;28;20056;-73
2023/04/20 06:52:35;;;;;;;13.40;8.90;;;;;;;;;;5020192;28;20493;-67
2023/04/20 06:55:01;;;;;;;8.05;6.20;;;;;;;;;;5018212;28;20904;-71
2023/04/20 06:57:26;;;;;;;14.60;9.25;;;;;;;;;;5018621;28;20053;-68
2023/04/20 06:59:52;;;;;;;13.65;8.95;;;;;;;;;;5002962;28;20053;-67
2023/04/20 07:02:17;;;;;;;14.60;8.75;;;;;;;;;;5019772;28;20049;-68
2023/04/20 07:04:42;;;;;;;13.15;8.98;;;;;;;;;;5019193;28;20045;-66
2023/04/20 07:07:08;;;;;;;9.43;7.13;;;;;;;;;;5019536;28;20465;-70
2023/04/20 07:09:33;;;;;;;8.13;6.65;;;;;;;;;;5020621;28;20045;-67
2023/04/20 07:11:59;;;;;;;13.90;9.13;;;;;;;;;;5019981;28;20041;-67
2023/04/20 07:14:25;;;;;;;13.55;9.23;;;;;;;;;;5020223;28;20128;-67
2023/04/20 07:16:53;;;;;;;7.20;6.07;;;;;;;;;;5000762;28;20136;-69
2023/04/20 07:19:19;;;;;;;10.32;7.18;;;;;;;;;;5019770;28;20494;-70
2023/04/20 07:21:45;;;;;;;11.75;8.85;;;;;;;;;;5020162;28;20050;-67
2023/04/20 07:24:11;;;;;;;11.05;7.88;;;;;;;;;;5019942;28;20132;-67
2023/04/20 07:26:37;;;;;;;14.52;9.00;;;;;;;;;;5019603;28;20136;-68
2023/04/20 07:29:02;;;;;;;12.95;8.77;;;;;;;;;;5026004;28;20502;-68
2023/04/20 07:31:28;;;;;;;5.82;5.22;;;;;;;;;;5026610;28;20103;-69
2023/04/20 07:33:53;;;;;;;8.52;6.88;;;;;;;;;;5026471;28;20041;-69
2023/04/20 07:36:20;;;;;;;10.27;7.90;;;;;;;;;;5026362;28;20056;-68
2023/04/20 07:38:46;;;;;;;10.48;7.68;;;;;;;;;;5024536;28;20135;-69
2023/04/20 07:41:11;;;;;;;12.13;9.30;;;;;;;;;;5026121;28;20183;-69
2023/04/20 07:43:37;;;;;;;12.52;8.40;;;;;;;;;;5026508;28;20064;-69
2023/04/20 07:46:03;;;;;;;15.20;8.27;;;;;;;;;;5026046;28;20048;-69
2023/04/20 07:48:28;;;;;;;14.43;9.15;;;;;;;;;;5024285;28;20049;-68
2023/04/20 07:50:54;;;;;;;16.73;11.73;;;;;;;;;;5025042;28;20527;-67
2023/04/20 07:53:19;;;;;;;13.77;8.32;;;;;;;;;;5024784;28;20037;-69
2023/04/20 07:55:45;;;;;;;6.70;6.00;;;;;;;;;;5026075;28;20057;-69
2023/04/20 07:58:11;;;;;;;7.15;5.72;;;;;;;;;;5026289;28;20049;-69
2023/04/20 08:00:36;;;;;;;6.47;5.45;;;;;;;;;;5024574;28;20056;-67
2023/04/20 08:03:02;;;;;;;7.70;6.00;;;;;;;;;;5026197;28;20057;-67
2023/04/20 08:05:27;;;;;;;8.02;5.85;;;;;;;;;;5026457;28;20051;-68
2023/04/20 08:07:53;;;;;;;8.82;6.28;;;;;;;;;;5026458;28;20099;-67
2023/04/20 08:10:18;;;;;;;7.00;5.70;;;;;;;;;;5025494;28;20125;-68
2023/04/20 08:12:44;;;;;;;6.63;5.25;;;;;;;;;;5025270;28;20052;-67
2023/04/20 08:15:10;;;;;;;7.80;6.35;;;;;;;;;;5024491;28;20061;-68
2023/04/20 08:17:35;;;;;;;9.80;7.05;;;;;;;;;;5025950;28;20138;-69
2023/04/20 08:20:01;;;;;;;6.63;5.57;;;;;;;;;;5026307;28;20103;-68
2023/04/20 08:22:28;;;;;;;7.13;5.95;;;;;;;;;;5025177;28;20422;-69
2023/04/20 08:24:57;;;;;;;8.68;6.80;;;;;;;;;;5025941;28;20053;-68
2023/04/20 08:27:23;;;;;;;9.52;7.32;;;;;;;;;;5026096;28;20076;-69
2023/04/20 08:29:48;;;;;;;10.25;6.95;;;;;;;;;;5026072;28;20072;-68
2023/04/20 08:32:14;;;;;;;12.30;10.15;;;;;;;;;;5019150;28;20041;-68
2023/04/20 08:34:39;;;;;;;11.20;8.70;;;;;;;;;;5023809;28;20103;-68
2023/04/20 08:37:05;;;;;;;9.30;7.63;;;;;;;;;;5025860;28;20049;-69
2023/04/20 08:39:31;;;;;;;11.30;8.68;;;;;;;;;;5021441;28;21075;-70
2023/04/20 08:41:57;;;;;;;7.57;6.28;;;;;;;;;;5022368;28;20193;-69
2023/04/20 08:44:23;;;;;;;8.80;5.93;;;;;;;;;;5021513;28;20577;-68
2023/04/20 08:46:49;;;;;;;4.82;4.07;;;;;;;;;;5021875;28;20541;-69
2023/04/20 08:49:16;;;;;;;6.28;5.68;;;;;;;;;;5022742;28;20545;-69
2023/04/20 08:51:47;;;;;;;9.98;8.52;;;;;;;;;;5022195;28;20528;-67
2023/04/20 08:54:13;;;;;;;11.73;8.98;;;;;;;;;;5021154;28;20053;-68
2023/04/20 08:56:44;;;;;;;12.45;8.95;;;;;;;;;;5021844;28;20041;-69
2023/04/20 08:59:12;;;;;;;15.23;10.33;;;;;;;;;;5022191;28;20049;-68
2023/04/20 09:01:40;;;;;;;12.20;9.15;;;;;;;;;;5022549;28;20710;-69
2023/04/20 09:04:15;;;;;;;10.02;8.02;;;;;;;;;;5022443;28;20053;-68
2023/04/20 09:06:52;;;;;;;12.05;9.13;;;;;;;;;;5020559;28;20114;-68
2023/04/20 09:09:20;;;;;;;11.43;8.13;;;;;;;;;;5021767;28;20045;-69
2023/04/20 09:11:46;;;;;;;12.05;8.98;;;;;;;;;;5022222;28;20406;-70
2023/04/20 09:14:13;;;;;;;13.25;8.38;;;;;;;;;;5021489;28;20049;-70
2023/04/20 09:16:59;;;;;;;12.32;9.07;;;;;;;;;;5020377;28;20457;-69
2023/04/20 09:19:26;;;;;;;11.65;9.57;;;;;;;;;;5021534;28;20060;-70
2023/04/20 09:21:54;;;;;;;12.20;8.75;;;;;;;;;;5021735;28;20064;-69
2023/04/20 09:24:21;;;;;;;7.63;6.20;;;;;;;;;;5022038;28;20049;-70
2023/04/20 09:26:47;;;;;;;8.75;7.55;;;;;;;;;;5021011;28;20061;-69
2023/04/20 09:29:22;;;;;;;8.98;7.68;;;;;;;;;;5020271;28;20037;-69
2023/04/20 09:31:49;;;;;;;8.60;7.18;;;;;;;;;;5021089;28;20145;-69
2023/04/20 09:34:15;;;;;;;6.85;5.45;;;;;;;;;;5021165;28;20049;-68
2023/04/20 09:36:43;;;;;;;9.40;7.85;;;;;;;;;;5020269;28;20057;-68
2023/04/20 09:39:10;;;;;;;10.70;8.32;;;;;;;;;;5020297;28;20564;-69
2023/04/20 09:41:37;;;;;;;12.80;8.15;;;;;;;;;;5020901;28;20188;-70
2023/04/20 09:44:04;;;;;;;6.63;5.90;;;;;;;;;;5020773;28;20056;-69
2023/04/20 09:46:31;;;;;;;7.88;6.60;;;;;;;;;;5020574;28;20080;-69
2023/04/20 09:48:58;;;;;;;6.25;5.22;;;;;;;;;;5020108;28;20469;-68
2023/04/20 09:51:26;;;;;;;6.55;5.80;;;;;;;;;;5018444;28;20752;-68
2023/04/20 09:53:56;;;;;;;7.15;6.35;;;;;;;;;;5020653;28;21003;-70
2023/04/20 09:56:22;;;;;;;7.10;6.35;;;;;;;;;;5020696;28;20049;-69
2023/04/20 09:58:49;;;;;;;13.80;8.18;;;;;;;;;;5018453;28;20391;-69
2023/04/20 10:01:15;;;;;;;8.65;6.80;;;;;;;;;;5019013;28;20080;-68
2023/04/20 10:03:41;;;;;;;10.45;6.53;;;;;;;;;;5020415;28;20240;-69
2023/04/20 10:06:26;;;;;;;13.77;8.13;;;;;;;;;;5020641;28;20049;-68
2023/04/20 10:08:52;;;;;;;8.68;6.82;;;;;;;;;;5019312;28;21025;-69
2023/04/20 10:11:29;;;;;;;30.17;11.45;;;;;;;;;;5019737;28;20037;-69
2023/04/20 10:14:00;;;;;;;7.97;6.38;;;;;;;;;;5020240;28;20132;-69
2023/04/20 10:16:26;;;;;;;7.03;6.35;;;;;;;;;;5020211;28;20099;-68
2023/04/20 10:19:02;;;;;;;9.20;7.20;;;;;;;;;;5019285;28;20055;-69
2023/04/20 10:21:31;;;;;;;8.35;6.35;;;;;;;;;;5020035;28;20597;-69
2023/04/20 10:24:00;;;;;;;7.65;6.57;;;;;;;;;;5019575;28;20586;-68
2023/04/20 10:26:39;;;;;;;7.38;6.30;;;;;;;;;;5019888;28;20813;-69
2023/04/20 10:29:05;;;;;;;7.20;5.38;;;;;;;;;;5018385;28;20053;-68
2023/04/20 10:31:38;;;;;;;7.20;6.50;;;;;;;;;;5019732;28;20532;-69
2023/04/20 10:34:05;;;;;;;7.05;5.28;;;;;;;;;;5019202;28;20442;-69
2023/04/20 10:36:36;;;;;;;7.70;6.80;;;;;;;;;;5019580;28;20041;-69
2023/04/20 10:39:21;;;;;;;6.43;5.78;;;;;;;;;;5035694;28;20042;-69
2023/04/20 10:42:00;;;;;;;9.45;7.15;;;;;;;;;;5019305;28;20263;-68
2023/04/20 10:44:26;;;;;;;11.25;6.38;;;;;;;;;;5014600;28;20041;-67
2023/04/20 10:46:52;;;;;;;5.78;4.93;;;;;;;;;;5018894;28;20053;-68
2023/04/20 10:49:17;;;;;;;5.78;5.18;;;;;;;;;;5019874;28;20076;-68
2023/04/20 10:51:50;;;;;;;5.97;5.38;;;;;;;;;;5019174;28;20045;-70
2023/04/20 10:54:16;;;;;;;10.10;6.72;;;;;;;;;;5019512;28;20037;-69
2023/04/20 10:56:46;;;;;;;6.65;5.95;;;;;;;;;;5017994;28;20045;-69
2023/04/20 10:59:16;;;;;;;8.90;6.47;;;;;;;;;;5020981;28;20051;-70
2023/04/20 11:01:43;;;;;;;6.55;5.72;;;;;;;;;;5019419;28;20061;-69
2023/04/20 11:04:10;;;;;;;7.13;6.25;;;;;;;;;;5018931;28;20041;-70
2023/04/20 11:06:40;;;;;;;5.85;5.13;;;;;;;;;;5018281;28;20061;-69
2023/04/20 11:09:25;;;;;;;7.35;5.60;;;;;;;;;;5020094;28;20060;-69
2023/04/20 11:12:01;;;;;;;6.72;6.03;;;;;;;;;;5019809;28;20941;-69
2023/04/20 11:14:27;;;;;;;6.75;5.90;;;;;;;;;;5019036;28;20601;-70
2023/04/20 11:16:53;;;;;;;7.65;6.50;;;;;;;;;;5019648;28;20056;-71
2023/04/20 11:19:27;;;;;;;7.57;5.88;;;;;;;;;;5017457;28;20073;-70
2023/04/20 11:21:53;;;;;;;6.80;6.03;;;;;;;;;;5019154;28;20789;-69
2023/04/20 11:24:20;;;;;;;7.97;6.88;;;;;;;;;;5020048;28;20129;-70
2023/04/20 11:26:50;;;;;;;8.48;6.45;;;;;;;;;;5019592;28;20051;-72
2023/04/20 11:29:35;;;;;;;7.85;7.05;;;;;;;;;;5019621;28;20051;-70
2023/04/20 11:32:03;;;;;;;7.90;6.97;;;;;;;;;;5018313;28;20048;-69
2023/04/20 11:34:29;;;;;;;6.15;5.53;;;;;;;;;;5019591;28;20580;-72
2023/04/20 11:36:55;;;;;;;8.10;7.05;;;;;;;;;;5019326;28;20057;-72
2023/04/20 11:39:23;;;;;;;10.63;6.57;;;;;;;;;;5019086;28;20048;-67
2023/04/20 11:41:48;;;;;;;9.15;7.68;;;;;;;;;;5019483;28;20062;-72
2023/04/20 11:44:14;;;;;;;9.63;7.03;;;;;;;;;;5016126;28;20057;-68
2023/04/20 11:46:39;;;;;;;5.68;4.80;;;;;;;;;;5017514;28;20090;-69
2023/04/20 11:49:05;;;;;;;7.78;6.85;;;;;;;;;;5019197;28;20513;-70
2023/04/20 11:51:31;;;;;;;7.25;6.35;;;;;;;;;;5018051;28;20517;-68
2023/04/20 11:53:56;;;;;;;10.18;7.22;;;;;;;;;;5017899;28;20041;-68
2023/04/20 11:56:22;;;;;;;9.70;7.70;;;;;;;;;;5018885;28;20583;-68
2023/04/20 11:58:48;;;;;;;9.93;7.22;;;;;;;;;;5017397;28;20088;-68
2023/04/20 12:01:13;;;;;;;8.73;7.32;;;;;;;;;;5018731;28;20122;-68
2023/04/20 12:03:39;;;;;;;11.40;9.02;;;;;;;;;;5019226;28;20120;-68
2023/04/20 12:06:04;;;;;;;11.55;7.97;;;;;;;;;;5018570;28;20059;-68
2023/04/20 12:08:30;;;;;;;9.60;7.22;;;;;;;;;;5017203;28;20053;-68
2023/04/20 12:10:55;;;;;;;8.75;7.68;;;;;;;;;;5017083;28;20112;-70
2023/04/20 12:13:21;;;;;;;11.95;7.82;;;;;;;;;;5019551;28;20045;-70
2023/04/20 12:15:47;;;;;;;9.65;7.82;;;;;;;;;;5022824;28;20122;-69
2023/04/20 12:18:12;;;;;;;13.75;8.40;;;;;;;;;;5023205;28;20064;-68
2023/04/20 12:20:37;;;;;;;9.18;7.50;;;;;;;;;;5022060;28;20136;-68
2023/04/20 12:23:03;;;;;;;12.02;7.88;;;;;;;;;;5022948;28;20049;-67
2023/04/20 12:25:28;;;;;;;10.85;7.28;;;;;;;;;;5021804;28;20069;-68
2023/04/20 12:27:53;;;;;;;6.22;5.53;;;;;;;;;;5022351;28;20052;-69
2023/04/20 12:30:19;;;;;;;7.47;6.45;;;;;;;;;;5022709;28;20103;-69
2023/04/20 12:32:44;;;;;;;10.30;8.68;;;;;;;;;;5021706;28;20125;-68
2023/04/20 12:35:10;;;;;;;9.80;7.60;;;;;;;;;;5021935;28;20048;-69
2023/04/20 12:37:35;;;;;;;12.65;9.45;;;;;;;;;;5022707;28;20403;-69
2023/04/20 12:40:01;;;;;;;11.10;9.02;;;;;;;;;;5022974;28;20056;-68
2023/04/20 12:42:26;;;;;;;12.23;9.75;;;;;;;;;;5023139;28;20057;-68
2023/04/20 12:44:53;;;;;;;12.68;9.25;;;;;;;;;;5022845;28;20773;-68
2023/04/20 12:47:18;;;;;;;13.90;10.27;;;;;;;;;;5021563;28;20055;-68
2023/04/20 12:49:44;;;;;;;14.65;10.20;;;;;;;;;;5021726;28;20398;-68
2023/04/20 12:52:09;;;;;;;17.67;12.43;;;;;;;;;;5022007;28;20600;-69
2023/04/20 12:54:35;;;;;;;13.77;10.13;;;;;;;;;;5021492;28;20049;-68
2023/04/20 12:57:01;;;;;;;12.60;8.95;;;;;;;;;;5024384;28;20413;-69
2023/04/20 12:59:26;;;;;;;14.40;10.57;;;;;;;;;;5041323;28;20041;-68
2023/04/20 13:01:52;;;;;;;18.85;12.00;;;;;;;;;;5027937;28;20049;-70
2023/04/20 13:04:17;;;;;;;15.35;10.65;;;;;;;;;;5018709;28;20520;-69
2023/04/20 13:06:43;;;;;;;18.95;12.55;;;;;;;;;;5014664;28;20050;-71
2023/04/20 13:09:08;;;;;;;18.80;11.77;;;;;;;;;;5020458;28;20137;-68
2023/04/20 13:11:33;;;;;;;16.63;11.88;;;;;;;;;;5021538;28;20048;-69
2023/04/20 13:13:59;;;;;;;17.73;12.25;;;;;;;;;;5021356;28;20049;-70
2023/04/20 13:16:25;;;;;;;20.08;11.80;;;;;;;;;;5021648;28;20049;-69
2023/04/20 13:18:50;;;;;;;18.92;12.68;;;;;;;;;;5020488;28;20064;-69
2023/04/20 13:21:15;;;;;;;20.40;12.85;;;;;;;;;;5021460;28;20052;-69
2023/04/20 13:23:41;;;;;;;20.25;13.55;;;;;;;;;;5021569;28;20114;-69
2023/04/20 13:26:07;;;;;;;19.17;12.50;;;;;;;;;;5021629;28;20049;-70
2023/04/20 13:28:33;;;;;;;19.80;12.80;;;;;;;;;;5020510;28;20049;-70
2023/04/20 13:30:58;;;;;;;22.42;14.07;;;;;;;;;;5018900;28;20102;-68
2023/04/20 13:33:24;;;;;;;21.90;14.48;;;;;;;;;;5018500;28;20099;-69
2023/04/20 13:35:50;;;;;;;23.27;14.13;;;;;;;;;;5020409;28;20080;-69
2023/04/20 13:38:16;;;;;;;21.80;14.98;;;;;;;;;;5015929;28;20124;-68
2023/04/20 13:40:43;;;;;;;23.73;14.30;;;;;;;;;;5012203;28;20497;-68
2023/04/20 13:43:08;;;;;;;22.45;14.55;;;;;;;;;;5017174;28;20520;-70
2023/04/20 13:45:33;;;;;;;26.85;14.45;;;;;;;;;;5021051;28;20049;-68
2023/04/20 13:47:59;;;;;;;23.55;14.13;;;;;;;;;;5021015;28;20053;-68
2023/04/20 13:50:24;;;;;;;21.52;14.25;;;;;;;;;;5021166;28;20056;-71
2023/04/20 13:52:50;;;;;;;20.98;12.63;;;;;;;;;;5018087;28;20116;-69
2023/04/20 13:55:16;;;;;;;21.13;12.90;;;;;;;;;;5020178;28;20042;-71
2023/04/20 13:57:42;;;;;;;20.10;12.25;;;;;;;;;;5021721;28;20808;-70
2023/04/20 14:00:08;;;;;;;19.77;12.27;;;;;;;;;;5020519;28;20076;-70
2023/04/20 14:02:34;;;;;;;21.20;13.18;;;;;;;;;;5020078;28;20050;-70
2023/04/20 14:04:59;;;;;;;20.60;13.93;;;;;;;;;;5019616;28;20505;-69
2023/04/20 14:07:25;;;;;;;19.33;12.13;;;;;;;;;;5021271;28;20092;-68
2023/04/20 14:09:55;;;;;;;19.58;13.38;;;;;;;;;;5020791;28;20052;-69
2023/04/20 14:12:20;;;;;;;21.85;12.15;;;;;;;;;;5020634;28;20136;-72
2023/04/20 14:14:45;;;;;;;20.63;12.23;;;;;;;;;;5019270;28;20135;-69
2023/04/20 14:17:11;;;;;;;17.98;12.23;;;;;;;;;;5015471;28;20041;-69
2023/04/20 14:19:37;;;;;;;19.25;13.25;;;;;;;;;;5020824;28;20049;-70
2023/04/20 14:22:02;;;;;;;20.10;12.25;;;;;;;;;;5019370;28;20513;-69
2023/04/20 14:24:27;;;;;;;18.88;12.93;;;;;;;;;;5017123;28;20124;-69
2023/04/20 14:26:53;;;;;;;17.77;12.80;;;;;;;;;;5019484;28;20081;-70
2023/04/20 14:29:18;;;;;;;19.02;12.88;;;;;;;;;;5019575;28;20494;-70